Time;durP1;ratioP1;P1;durP2;ratioP2;P2;SDS_P1;SDS_P2;PMS_P1;PMS_P2;Temp;Humidity;BMP_temperature;BMP_pressure;BME280_temperature;BME280_humidity;BME280_pressure;Samples;Min_cycle;Max_cycle;Signal;HPM_P1;HPM_P2
2022/12/14 00:00:59;;;;;;;25.33;11.67;;;;;;;-142.25;100.00;58004.16;5034748;28;20080;-62
2022/12/14 00:03:24;;;;;;;30.07;14.60;;;;;;;-142.25;100.00;58004.16;5029983;28;20049;-59
2022/12/14 00:05:50;;;;;;;35.70;12.63;;;;;;;-142.25;100.00;58004.16;5034306;28;20132;-59
2022/12/14 00:08:17;;;;;;;28.53;12.50;;;;;;;-142.25;100.00;58004.16;5030734;28;20420;-59
2022/12/14 00:10:42;;;;;;;26.37;12.63;;;;;;;-142.25;100.00;58004.16;5032595;28;20036;-59
2022/12/14 00:13:11;;;;;;;31.77;14.13;;;;;;;-142.25;100.00;58004.16;5029931;28;20052;-59
2022/12/14 00:15:37;;;;;;;31.27;13.90;;;;;;;-142.25;100.00;58004.16;5031329;28;20388;-59
2022/12/14 00:18:03;;;;;;;33.50;14.37;;;;;;;-142.25;100.00;58004.16;5031974;28;20034;-60
2022/12/14 00:20:29;;;;;;;30.17;14.10;;;;;;;-142.25;100.00;58004.16;5033573;28;20037;-59
2022/12/14 00:22:55;;;;;;;30.63;13.20;;;;;;;-142.25;100.00;58004.16;5032607;28;20577;-59
2022/12/14 00:25:21;;;;;;;28.63;11.87;;;;;;;-142.25;100.00;58004.16;5033324;28;20068;-59
2022/12/14 00:27:47;;;;;;;33.77;15.40;;;;;;;-142.25;100.00;58004.16;5032664;28;20176;-59
2022/12/14 00:30:15;;;;;;;33.60;15.23;;;;;;;-142.25;100.00;58004.16;5039605;28;20041;-59
2022/12/14 00:32:41;;;;;;;34.27;14.70;;;;;;;-142.25;100.00;58004.16;5031006;28;20053;-59
2022/12/14 00:35:08;;;;;;;28.67;13.60;;;;;;;-142.25;100.00;58004.16;5032032;28;20026;-60
2022/12/14 00:37:34;;;;;;;30.57;13.97;;;;;;;-142.25;100.00;58004.16;5033892;28;20107;-59
2022/12/14 00:40:00;;;;;;;25.93;14.67;;;;;;;-142.25;100.00;58004.16;5030041;28;20045;-60
2022/12/14 00:42:26;;;;;;;30.63;14.63;;;;;;;-142.25;100.00;58004.16;5033508;28;20469;-60
2022/12/14 00:44:52;;;;;;;29.60;12.87;;;;;;;-142.25;100.00;58004.16;5032402;28;20098;-60
2022/12/14 00:47:17;;;;;;;29.63;14.57;;;;;;;-142.25;100.00;58004.16;5034999;28;20163;-59
2022/12/14 00:49:43;;;;;;;33.30;13.70;;;;;;;-142.25;100.00;58004.16;5032690;28;20091;-62
2022/12/14 00:52:08;;;;;;;31.73;12.77;;;;;;;-142.25;100.00;58004.16;5033276;28;20057;-59
2022/12/14 00:54:35;;;;;;;26.87;13.53;;;;;;;-142.25;100.00;58004.16;5032992;28;20053;-60
2022/12/14 00:57:00;;;;;;;30.87;14.27;;;;;;;-142.25;100.00;58004.16;5032460;28;20044;-59
2022/12/14 00:59:26;;;;;;;29.13;12.67;;;;;;;-142.25;100.00;58004.16;5035519;28;20079;-59
2022/12/14 01:01:52;;;;;;;31.17;14.37;;;;;;;-142.25;100.00;58004.16;5035240;28;20069;-59
2022/12/14 01:04:18;;;;;;;25.60;12.40;;;;;;;-142.25;100.00;58004.16;5033056;28;20452;-59
2022/12/14 01:06:51;;;;;;;32.10;13.63;;;;;;;-142.25;100.00;58004.16;5034438;28;20140;-60
2022/12/14 01:09:20;;;;;;;30.27;14.00;;;;;;;-142.25;100.00;58004.16;5033784;28;20052;-60
2022/12/14 01:11:46;;;;;;;31.80;16.23;;;;;;;-142.25;100.00;58004.16;5036049;28;20060;-58
2022/12/14 01:14:15;;;;;;;29.83;15.13;;;;;;;-142.25;100.00;58004.16;5028761;28;20037;-61
2022/12/14 01:16:41;;;;;;;33.43;17.70;;;;;;;-142.25;100.00;58004.16;5029717;28;20145;-58
2022/12/14 01:19:09;;;;;;;39.20;18.43;;;;;;;-142.25;100.00;58004.16;5025570;28;20040;-58
2022/12/14 01:21:34;;;;;;;37.03;18.57;;;;;;;-142.25;100.00;58004.16;5027997;28;20041;-59
2022/12/14 01:24:02;;;;;;;31.83;17.43;;;;;;;-142.25;100.00;58004.16;5024033;28;20083;-58
2022/12/14 01:26:29;;;;;;;37.07;18.50;;;;;;;-142.25;100.00;58004.16;5025564;28;20073;-59
2022/12/14 01:28:57;;;;;;;34.30;17.43;;;;;;;-142.25;100.00;58004.16;5028787;28;20036;-58
2022/12/14 01:31:26;;;;;;;37.03;19.47;;;;;;;-142.25;100.00;58004.16;5024781;28;20049;-60
2022/12/14 01:33:52;;;;;;;32.53;17.03;;;;;;;-142.25;100.00;58004.16;5025939;28;20038;-58
2022/12/14 01:36:21;;;;;;;41.93;18.27;;;;;;;-142.25;100.00;58004.16;5030125;28;20033;-58
2022/12/14 01:38:53;;;;;;;35.40;17.43;;;;;;;-142.25;100.00;58004.16;5031181;28;20043;-58
2022/12/14 01:41:30;;;;;;;38.80;18.17;;;;;;;-142.25;100.00;58004.16;5031853;28;20522;-59
2022/12/14 01:43:59;;;;;;;39.17;19.43;;;;;;;-142.25;100.00;58004.16;5028008;28;20760;-58
2022/12/14 01:46:36;;;;;;;32.40;17.43;;;;;;;-142.25;100.00;58004.16;5025036;28;20099;-59
2022/12/14 01:49:29;;;;;;;28.63;18.40;;;;;;;-142.25;100.00;58004.16;5031135;28;20144;-62
2022/12/14 01:52:13;;;;;;;31.63;17.80;;;;;;;-142.25;100.00;58004.16;5030642;28;20045;-59
2022/12/14 01:54:50;;;;;;;32.17;17.60;;;;;;;-142.25;100.00;58004.16;5030387;28;20029;-59
2022/12/14 01:57:21;;;;;;;34.57;18.10;;;;;;;-142.25;100.00;58004.16;5030663;28;20041;-58
2022/12/14 01:59:48;;;;;;;33.83;17.27;;;;;;;-142.25;100.00;58004.16;5027611;28;20033;-60
2022/12/14 02:02:16;;;;;;;31.07;16.47;;;;;;;-142.25;100.00;58004.16;5025694;28;20380;-58
2022/12/14 02:04:46;;;;;;;33.10;17.30;;;;;;;-142.25;100.00;58004.16;5030195;28;20411;-59
2022/12/14 02:07:13;;;;;;;31.63;17.50;;;;;;;-142.25;100.00;58004.16;5031058;28;20045;-59
2022/12/14 02:09:42;;;;;;;33.90;16.90;;;;;;;-142.25;100.00;58004.16;5028659;28;20045;-59
2022/12/14 02:12:13;;;;;;;35.77;17.00;;;;;;;-142.25;100.00;58004.16;5030515;28;20041;-60
2022/12/14 02:14:40;;;;;;;37.03;18.00;;;;;;;-142.25;100.00;58004.16;5029527;28;20148;-60
2022/12/14 02:17:07;;;;;;;27.47;15.43;;;;;;;-142.25;100.00;58004.16;5029649;28;20053;-60
2022/12/14 02:19:33;;;;;;;35.77;16.70;;;;;;;-142.25;100.00;58004.16;5029639;28;20108;-60
2022/12/14 02:22:30;;;;;;;32.97;17.30;;;;;;;-142.25;100.00;58004.16;5031019;28;20726;-59
2022/12/14 02:25:14;;;;;;;32.53;16.73;;;;;;;-142.25;100.00;58004.16;5029859;28;20370;-58
2022/12/14 02:27:49;;;;;;;33.33;16.73;;;;;;;-142.25;100.00;58004.16;5033136;28;20657;-58
2022/12/14 02:30:24;;;;;;;34.40;17.55;;;;;;;-142.25;100.00;58004.16;5034029;28;20033;-59
2022/12/14 02:33:11;;;;;;;30.42;15.98;;;;;;;-142.25;100.00;58004.16;5031451;28;20045;-59
2022/12/14 02:35:49;;;;;;;32.77;17.07;;;;;;;-142.25;100.00;58004.16;5034516;28;20420;-59
2022/12/14 02:38:39;;;;;;;29.73;16.37;;;;;;;-142.25;100.00;58004.16;5032872;28;20053;-60
2022/12/14 02:41:10;;;;;;;28.00;15.87;;;;;;;-142.25;100.00;58004.16;5022982;28;20172;-59
2022/12/14 02:43:54;;;;;;;31.60;16.37;;;;;;;-142.25;100.00;58004.16;5031178;28;20392;-59
2022/12/14 02:46:28;;;;;;;30.55;17.38;;;;;;;-142.25;100.00;58004.16;5034574;28;20037;-59
2022/12/14 02:49:24;;;;;;;28.73;16.17;;;;;;;-142.25;100.00;58004.16;5026024;28;20048;-59
2022/12/14 02:52:16;;;;;;;29.50;17.17;;;;;;;-142.25;100.00;58004.16;5034654;28;20049;-60
2022/12/14 02:55:01;;;;;;;30.30;17.03;;;;;;;-142.25;100.00;58004.16;5033216;28;20144;-59
2022/12/14 02:57:36;;;;;;;32.33;16.80;;;;;;;-142.25;100.00;58004.16;5028018;28;20849;-59
2022/12/14 03:00:04;;;;;;;32.95;17.92;;;;;;;-142.25;100.00;58004.16;5032980;28;20465;-58
2022/12/14 03:02:35;;;;;;;32.27;16.47;;;;;;;-142.25;100.00;58004.16;5032830;28;20056;-59
2022/12/14 03:05:01;;;;;;;31.57;17.17;;;;;;;-142.25;100.00;58004.16;5042670;28;20048;-59
2022/12/14 03:07:32;;;;;;;32.60;17.80;;;;;;;-142.25;100.00;58004.16;5030233;28;20037;-60
2022/12/14 03:10:18;;;;;;;35.60;16.87;;;;;;;-142.25;100.00;58004.16;5033012;28;20302;-59
2022/12/14 03:12:49;;;;;;;31.13;18.07;;;;;;;-142.25;100.00;58004.16;5035409;28;20153;-58
2022/12/14 03:15:18;;;;;;;32.13;15.97;;;;;;;-142.25;100.00;58004.16;5032884;28;20056;-59
2022/12/14 03:17:47;;;;;;;33.20;16.57;;;;;;;-142.25;100.00;58004.16;5043996;28;20170;-59
2022/12/14 03:20:19;;;;;;;29.13;16.73;;;;;;;-142.25;100.00;58004.16;5036323;28;20045;-59
2022/12/14 03:22:59;;;;;;;32.57;16.60;;;;;;;-142.25;100.00;58004.16;5035073;28;20049;-60
2022/12/14 03:25:32;;;;;;;29.37;16.87;;;;;;;-142.25;100.00;58004.16;5035331;28;20132;-60
2022/12/14 03:28:07;;;;;;;29.57;15.63;;;;;;;-142.25;100.00;58004.16;5034483;28;20480;-60
2022/12/14 03:30:37;;;;;;;35.10;17.50;;;;;;;-142.25;100.00;58004.16;5036903;28;20046;-59
2022/12/14 03:33:10;;;;;;;33.33;17.63;;;;;;;-142.25;100.00;58004.16;5032956;28;20559;-59
2022/12/14 03:35:43;;;;;;;30.90;16.57;;;;;;;-142.25;100.00;58004.16;5028057;28;20044;-59
2022/12/14 03:38:08;;;;;;;31.43;16.13;;;;;;;-142.25;100.00;58004.16;5031174;28;20049;-60
2022/12/14 03:40:51;;;;;;;31.73;16.27;;;;;;;-142.25;100.00;58004.16;5034679;28;20045;-60
2022/12/14 03:43:47;;;;;;;31.23;16.70;;;;;;;-142.25;100.00;58004.16;5034789;28;20526;-60
2022/12/14 03:46:18;;;;;;;30.65;15.05;;;;;;;-142.25;100.00;58004.16;5034034;28;20958;-59
2022/12/14 03:48:50;;;;;;;31.10;16.30;;;;;;;-142.25;100.00;58004.16;5041648;28;20063;-59
2022/12/14 03:51:29;;;;;;;29.33;16.97;;;;;;;-142.25;100.00;58004.16;5040896;28;20045;-59
2022/12/14 03:54:04;;;;;;;27.47;15.60;;;;;;;-142.25;100.00;58004.16;5033701;28;20504;-60
2022/12/14 03:56:48;;;;;;;27.33;16.60;;;;;;;-142.25;100.00;58004.16;5033628;28;20555;-59
2022/12/14 03:59:17;;;;;;;35.77;16.93;;;;;;;-142.25;100.00;58004.16;5047710;28;20037;-59
2022/12/14 04:01:48;;;;;;;30.47;16.27;;;;;;;-142.25;100.00;58004.16;5032390;28;20068;-60
2022/12/14 04:04:27;;;;;;;32.93;16.67;;;;;;;-142.25;100.00;58004.16;5033951;28;20492;-60
2022/12/14 04:06:56;;;;;;;33.47;16.70;;;;;;;-142.25;100.00;58004.16;5034692;28;20041;-60
2022/12/14 04:09:31;;;;;;;25.70;15.97;;;;;;;-142.25;100.00;58004.16;5033021;28;20090;-61
2022/12/14 04:18:55;;;;;;;29.87;16.13;;;;;;;-142.25;100.00;58004.16;5028177;28;20041;-58
2022/12/14 04:20:49;;;;;;;25.03;15.40;;;;;;;-142.25;100.00;58004.16;5031402;28;20120;-58
2022/12/14 04:26:22;;;;;;;27.37;15.30;;;;;;;-142.25;100.00;58004.16;5025674;28;20571;-60
2022/12/14 04:32:38;;;;;;;32.43;16.90;;;;;;;-142.25;100.00;58004.16;5031950;28;20079;-59
2022/12/14 04:35:13;;;;;;;30.97;15.30;;;;;;;-142.25;100.00;58004.16;5020340;28;20071;-60
2022/12/14 04:37:42;;;;;;;32.10;18.63;;;;;;;-142.25;100.00;58004.16;5021425;28;20152;-59
2022/12/14 04:40:13;;;;;;;32.70;17.33;;;;;;;-142.25;100.00;58004.16;5018988;28;20072;-58
2022/12/14 04:43:08;;;;;;;27.83;15.10;;;;;;;-142.25;100.00;58004.16;5004864;28;20049;-60
2022/12/14 04:45:57;;;;;;;26.55;16.52;;;;;;;-142.25;100.00;58004.16;5021179;28;20103;-58
2022/12/14 04:48:40;;;;;;;31.23;16.13;;;;;;;-142.25;100.00;58004.16;5017391;28;20132;-60
2022/12/14 04:51:11;;;;;;;30.30;16.30;;;;;;;-142.25;100.00;58004.16;5013555;28;20053;-61
2022/12/14 04:53:39;;;;;;;27.87;16.63;;;;;;;-142.25;100.00;58004.16;5019981;28;20649;-59
2022/12/14 04:56:08;;;;;;;30.80;17.30;;;;;;;-142.25;100.00;58004.16;5019905;28;20046;-60
2022/12/14 04:58:34;;;;;;;25.60;16.33;;;;;;;-142.25;100.00;58004.16;5021028;28;20058;-59
2022/12/14 05:01:19;;;;;;;30.50;16.40;;;;;;;-142.25;100.00;58004.16;5017317;28;20052;-58
2022/12/14 05:04:23;;;;;;;30.97;16.40;;;;;;;-142.25;100.00;58004.16;5019991;28;20057;-58
2022/12/14 05:07:03;;;;;;;32.07;17.97;;;;;;;-142.25;100.00;58004.16;5020121;28;20195;-59
2022/12/14 05:09:38;;;;;;;31.70;16.30;;;;;;;-142.25;100.00;58004.16;5020362;28;20056;-58
2022/12/14 05:12:24;;;;;;;33.75;18.70;;;;;;;-142.25;100.00;58004.16;5030315;28;20576;-60
2022/12/14 05:15:02;;;;;;;31.47;17.17;;;;;;;-142.25;100.00;58004.16;5031954;28;20069;-60
2022/12/14 05:17:28;;;;;;;30.97;18.90;;;;;;;-142.25;100.00;58004.16;5030455;28;20041;-60
2022/12/14 05:19:54;;;;;;;34.77;18.47;;;;;;;-142.25;100.00;58004.16;5032020;28;20040;-60
2022/12/14 05:22:20;;;;;;;28.23;18.30;;;;;;;-142.25;100.00;58004.16;5034193;28;20341;-60
2022/12/14 05:24:45;;;;;;;29.63;18.50;;;;;;;-142.25;100.00;58004.16;5030878;28;20986;-59
2022/12/14 05:27:11;;;;;;;32.90;18.67;;;;;;;-142.25;100.00;58004.16;5032348;28;20041;-62
2022/12/14 05:29:37;;;;;;;31.93;18.50;;;;;;;-142.25;100.00;58004.16;5029090;28;20041;-59
2022/12/14 05:32:03;;;;;;;33.80;17.43;;;;;;;-142.25;100.00;58004.16;5031699;28;20049;-60
2022/12/14 05:34:29;;;;;;;30.43;17.47;;;;;;;-142.25;100.00;58004.16;5031435;28;20079;-59
2022/12/14 05:36:55;;;;;;;34.30;17.83;;;;;;;-142.25;100.00;58004.16;5033047;28;20118;-60
2022/12/14 05:39:21;;;;;;;36.13;19.73;;;;;;;-142.25;100.00;58004.16;5032351;28;20045;-59
2022/12/14 05:41:46;;;;;;;37.30;19.47;;;;;;;-142.25;100.00;58004.16;5030048;28;20667;-59
2022/12/14 05:44:12;;;;;;;30.77;17.63;;;;;;;-142.25;100.00;58004.16;5030330;28;20263;-60
2022/12/14 05:46:38;;;;;;;34.83;17.80;;;;;;;-142.25;100.00;58004.16;5031036;28;20123;-60
2022/12/14 05:49:03;;;;;;;30.90;17.33;;;;;;;-142.25;100.00;58004.16;5032457;28;20857;-60
2022/12/14 05:51:29;;;;;;;31.27;17.17;;;;;;;-142.25;100.00;58004.16;5031596;28;20041;-60
2022/12/14 05:53:57;;;;;;;34.00;18.33;;;;;;;-142.25;100.00;58004.16;5031635;28;20049;-59
2022/12/14 05:56:22;;;;;;;33.27;17.90;;;;;;;-142.25;100.00;58004.16;5030657;28;20045;-59
2022/12/14 05:58:49;;;;;;;34.77;18.67;;;;;;;-142.25;100.00;58004.16;5031186;28;20045;-56
2022/12/14 06:01:15;;;;;;;36.33;19.43;;;;;;;-142.25;100.00;58004.16;5041086;28;20050;-57
2022/12/14 06:03:41;;;;;;;34.77;19.27;;;;;;;-142.25;100.00;58004.16;5037793;28;20065;-56
2022/12/14 06:06:09;;;;;;;33.00;17.77;;;;;;;-142.25;100.00;58004.16;5035519;28;20080;-62
2022/12/14 06:08:38;;;;;;;34.93;18.97;;;;;;;-142.25;100.00;58004.16;5034950;28;20037;-51
2022/12/14 06:11:13;;;;;;;32.53;17.17;;;;;;;-142.25;100.00;58004.16;5031346;28;20068;-60
2022/12/14 06:13:39;;;;;;;33.90;18.52;;;;;;;-142.25;100.00;58004.16;5031166;28;20516;-61
2022/12/14 06:16:09;;;;;;;31.73;17.13;;;;;;;-142.25;100.00;58004.16;5033420;28;20053;-61
2022/12/14 06:18:35;;;;;;;32.87;18.80;;;;;;;-142.25;100.00;58004.16;5030055;28;20164;-62
2022/12/14 06:21:01;;;;;;;29.33;17.30;;;;;;;-142.25;100.00;58004.16;5030407;28;20373;-59
2022/12/14 06:23:27;;;;;;;34.27;17.10;;;;;;;-142.25;100.00;58004.16;5036369;28;20039;-59
2022/12/14 06:25:56;;;;;;;34.43;17.90;;;;;;;-142.25;100.00;58004.16;5034036;28;20413;-57
2022/12/14 06:28:23;;;;;;;32.67;18.53;;;;;;;-142.25;100.00;58004.16;5036433;28;20590;-60
2022/12/14 06:30:48;;;;;;;34.97;17.13;;;;;;;-142.25;100.00;58004.16;5036642;28;20140;-60
2022/12/14 06:33:14;;;;;;;37.07;19.77;;;;;;;-142.25;100.00;58004.16;5037238;28;20109;-59
2022/12/14 06:35:44;;;;;;;34.53;18.67;;;;;;;-142.25;100.00;58004.16;5035690;28;20037;-65
2022/12/14 06:38:11;;;;;;;34.67;18.07;;;;;;;-142.25;100.00;58004.16;5040513;28;20100;-59
2022/12/14 06:40:37;;;;;;;35.30;17.97;;;;;;;-142.25;100.00;58004.16;5039713;28;20072;-59
2022/12/14 06:43:05;;;;;;;29.93;16.50;;;;;;;-142.25;100.00;58004.16;5040013;28;20465;-62
2022/12/14 06:45:31;;;;;;;32.60;17.33;;;;;;;-142.25;100.00;58004.16;5033760;28;20048;-59
2022/12/14 06:47:57;;;;;;;37.00;18.43;;;;;;;-142.25;100.00;58004.16;5036027;28;20467;-61
2022/12/14 06:50:24;;;;;;;34.07;16.97;;;;;;;-142.25;100.00;58004.16;5034502;28;20448;-62
2022/12/14 06:52:50;;;;;;;40.40;19.23;;;;;;;-142.25;100.00;58004.16;5035154;28;20046;-62
2022/12/14 06:55:17;;;;;;;31.77;17.80;;;;;;;-142.25;100.00;58004.16;5029559;28;20041;-60
2022/12/14 06:57:42;;;;;;;32.27;19.40;;;;;;;-142.25;100.00;58004.16;5028175;28;20049;-60
2022/12/14 07:00:11;;;;;;;34.40;18.30;;;;;;;-142.25;100.00;58004.16;5029256;28;20508;-59
2022/12/14 07:02:37;;;;;;;31.90;17.47;;;;;;;-142.25;100.00;58004.16;5032811;28;20542;-60
2022/12/14 07:05:04;;;;;;;31.37;17.77;;;;;;;-142.25;100.00;58004.16;5029583;28;20044;-60
2022/12/14 07:07:33;;;;;;;31.60;18.13;;;;;;;-142.25;100.00;58004.16;5029266;28;20045;-60
2022/12/14 07:09:59;;;;;;;32.53;18.43;;;;;;;-142.25;100.00;58004.16;5035338;28;20048;-60
2022/12/14 07:12:26;;;;;;;33.13;18.73;;;;;;;-142.25;100.00;58004.16;5032295;28;20045;-63
2022/12/14 07:14:53;;;;;;;33.57;17.17;;;;;;;-142.25;100.00;58004.16;5035016;28;20485;-61
2022/12/14 07:17:18;;;;;;;34.17;17.63;;;;;;;-142.25;100.00;58004.16;5035499;28;20087;-62
2022/12/14 07:19:45;;;;;;;30.57;17.37;;;;;;;-142.25;100.00;58004.16;5030552;28;20710;-61
2022/12/14 07:22:11;;;;;;;34.27;17.80;;;;;;;-142.25;100.00;58004.16;5028716;28;20061;-62
2022/12/14 07:24:37;;;;;;;35.83;18.97;;;;;;;-142.25;100.00;58004.16;5032768;28;20037;-62
2022/12/14 07:27:03;;;;;;;31.73;17.03;;;;;;;-142.25;100.00;58004.16;5028284;28;20471;-63
2022/12/14 07:29:29;;;;;;;33.73;17.63;;;;;;;-142.25;100.00;58004.16;5033276;28;20061;-61
2022/12/14 07:31:55;;;;;;;33.17;19.73;;;;;;;-142.25;100.00;58004.16;5033978;28;20481;-61
2022/12/14 07:34:20;;;;;;;33.27;17.40;;;;;;;-142.25;100.00;58004.16;5035972;28;20117;-61
2022/12/14 07:36:49;;;;;;;30.57;17.07;;;;;;;-142.25;100.00;58004.16;5032534;28;20042;-61
2022/12/14 07:39:16;;;;;;;35.03;17.43;;;;;;;-142.25;100.00;58004.16;5031021;28;20041;-61
2022/12/14 07:41:44;;;;;;;33.53;18.47;;;;;;;-142.25;100.00;58004.16;5034567;28;20041;-62
2022/12/14 07:44:10;;;;;;;33.70;17.63;;;;;;;-142.25;100.00;58004.16;5035679;28;20060;-61
2022/12/14 07:46:36;;;;;;;31.87;18.43;;;;;;;-142.25;100.00;58004.16;5028495;28;20134;-60
2022/12/14 07:49:02;;;;;;;36.77;20.23;;;;;;;-142.25;100.00;58004.16;5034378;28;20635;-60
2022/12/14 07:51:31;;;;;;;29.60;16.80;;;;;;;-142.25;100.00;58004.16;5033726;28;20048;-60
2022/12/14 07:53:58;;;;;;;35.93;18.43;;;;;;;-142.25;100.00;58004.16;5028432;28;20062;-59
2022/12/14 07:56:27;;;;;;;33.03;18.43;;;;;;;-142.25;100.00;58004.16;5033938;28;20492;-59
2022/12/14 07:58:55;;;;;;;33.53;19.07;;;;;;;-142.25;100.00;58004.16;5034617;28;20041;-59
2022/12/14 08:01:26;;;;;;;33.03;18.07;;;;;;;-142.25;100.00;58004.16;5033996;28;20037;-58
2022/12/14 08:03:54;;;;;;;34.07;18.70;;;;;;;-142.25;100.00;58004.16;5034921;28;20041;-59
2022/12/14 08:06:23;;;;;;;32.40;18.57;;;;;;;-142.25;100.00;58004.16;5034362;28;20093;-59
2022/12/14 08:08:49;;;;;;;35.93;19.70;;;;;;;-142.25;100.00;58004.16;5034800;28;20119;-60
2022/12/14 08:11:15;;;;;;;33.10;18.40;;;;;;;-142.25;100.00;58004.16;5034599;28;20046;-60
2022/12/14 08:13:42;;;;;;;35.40;19.17;;;;;;;-142.25;100.00;58004.16;5030485;28;20045;-59
2022/12/14 08:16:13;;;;;;;36.80;18.83;;;;;;;-142.25;100.00;58004.16;5026015;28;20052;-60
2022/12/14 08:18:39;;;;;;;40.73;20.83;;;;;;;-142.25;100.00;58004.16;5031673;28;20042;-59
2022/12/14 08:21:06;;;;;;;37.60;19.23;;;;;;;-142.25;100.00;58004.16;5029298;28;20037;-59
2022/12/14 08:23:33;;;;;;;31.03;17.47;;;;;;;-142.25;100.00;58004.16;5031193;28;20041;-60
2022/12/14 08:25:59;;;;;;;37.60;18.63;;;;;;;-142.25;100.00;58004.16;5028733;28;20173;-60
2022/12/14 08:28:26;;;;;;;34.80;19.30;;;;;;;-142.25;100.00;58004.16;5028942;28;20064;-60
2022/12/14 08:30:53;;;;;;;36.97;18.77;;;;;;;-142.25;100.00;58004.16;5032333;28;20167;-59
2022/12/14 08:33:19;;;;;;;33.13;18.47;;;;;;;-142.25;100.00;58004.16;5030452;28;20094;-60
2022/12/14 08:35:45;;;;;;;36.53;18.37;;;;;;;-142.25;100.00;58004.16;5032376;28;20034;-60
2022/12/14 08:38:10;;;;;;;36.77;19.00;;;;;;;-142.25;100.00;58004.16;5032942;28;20095;-59
2022/12/14 08:40:37;;;;;;;35.03;17.40;;;;;;;-142.25;100.00;58004.16;5033197;28;20069;-60
2022/12/14 08:43:04;;;;;;;36.33;17.70;;;;;;;-142.25;100.00;58004.16;5033507;28;20045;-60
2022/12/14 08:45:29;;;;;;;36.33;18.03;;;;;;;-142.25;100.00;58004.16;5032572;28;20061;-62
2022/12/14 08:47:57;;;;;;;31.13;17.90;;;;;;;-142.25;100.00;58004.16;5032891;28;20091;-59
2022/12/14 08:50:23;;;;;;;33.23;17.73;;;;;;;-142.25;100.00;58004.16;5032814;28;20049;-59
2022/12/14 08:52:48;;;;;;;39.90;19.60;;;;;;;-142.25;100.00;58004.16;5032913;28;20046;-59
2022/12/14 08:55:14;;;;;;;35.50;19.47;;;;;;;-142.25;100.00;58004.16;5036234;28;20048;-59
2022/12/14 08:57:40;;;;;;;39.33;18.87;;;;;;;-142.25;100.00;58004.16;5033820;28;20108;-60
2022/12/14 09:00:08;;;;;;;33.53;19.07;;;;;;;-142.25;100.00;58004.16;5029041;28;20120;-60
2022/12/14 09:02:34;;;;;;;29.60;15.43;;;;;;;-142.25;100.00;58004.16;5032397;28;20045;-60
2022/12/14 09:05:00;;;;;;;35.37;18.23;;;;;;;-142.25;100.00;58004.16;5030022;28;20092;-60
2022/12/14 09:07:27;;;;;;;30.47;18.63;;;;;;;-142.25;100.00;58004.16;5032499;28;20042;-60
2022/12/14 09:09:53;;;;;;;29.17;17.23;;;;;;;-142.25;100.00;58004.16;5030950;28;20049;-61
2022/12/14 09:12:19;;;;;;;31.40;16.13;;;;;;;-142.25;100.00;58004.16;5033219;28;20519;-61
2022/12/14 09:14:48;;;;;;;41.30;20.43;;;;;;;-142.25;100.00;58004.16;5026532;28;20227;-58
2022/12/14 09:17:15;;;;;;;30.30;17.17;;;;;;;-142.25;100.00;58004.16;5026673;28;20045;-59
2022/12/14 09:19:41;;;;;;;29.73;16.67;;;;;;;-142.25;100.00;58004.16;5033049;28;20041;-58
2022/12/14 09:22:07;;;;;;;30.87;17.27;;;;;;;-142.25;100.00;58004.16;5032474;28;20569;-58
2022/12/14 09:24:33;;;;;;;32.63;17.10;;;;;;;-142.25;100.00;58004.16;5033975;28;20046;-61
2022/12/14 09:26:59;;;;;;;32.03;16.83;;;;;;;-142.25;100.00;58004.16;5030100;28;20049;-59
2022/12/14 09:29:26;;;;;;;29.60;16.47;;;;;;;-142.25;100.00;58004.16;5018698;28;20045;-61
2022/12/14 09:31:52;;;;;;;36.07;18.37;;;;;;;-142.25;100.00;58004.16;5027766;28;20081;-63
2022/12/14 09:34:18;;;;;;;33.70;18.67;;;;;;;-142.25;100.00;58004.16;5026295;28;20049;-61
2022/12/14 09:36:44;;;;;;;32.90;18.10;;;;;;;-142.25;100.00;58004.16;5031340;28;20040;-61
2022/12/14 09:39:13;;;;;;;31.03;17.43;;;;;;;-142.25;100.00;58004.16;5035937;28;20463;-61
2022/12/14 09:41:48;;;;;;;33.83;18.47;;;;;;;-142.25;100.00;58004.16;5050506;28;20127;-62
2022/12/14 09:44:33;;;;;;;26.50;17.83;;;;;;;-142.25;100.00;58004.16;5028791;28;20056;-61
2022/12/14 09:47:26;;;;;;;32.93;17.40;;;;;;;-142.25;100.00;58004.16;5042398;28;20084;-61
2022/12/14 09:49:54;;;;;;;41.37;18.87;;;;;;;-142.25;100.00;58004.16;5036033;28;20091;-61
2022/12/14 09:52:32;;;;;;;30.07;17.63;;;;;;;-142.25;100.00;58004.16;5035988;28;20044;-62
2022/12/14 09:55:01;;;;;;;31.90;18.30;;;;;;;-142.25;100.00;58004.16;5034177;28;20041;-64
2022/12/14 09:57:40;;;;;;;32.30;17.23;;;;;;;-142.25;100.00;58004.16;5028249;28;20492;-61
2022/12/14 10:00:13;;;;;;;31.10;18.03;;;;;;;-142.25;100.00;58004.16;5031447;28;20082;-61
2022/12/14 10:02:45;;;;;;;31.40;18.67;;;;;;;-142.25;100.00;58004.16;5027855;28;20114;-61
2022/12/14 10:05:32;;;;;;;32.50;18.03;;;;;;;-142.25;100.00;58004.16;5032254;28;20045;-60
2022/12/14 10:08:06;;;;;;;39.27;20.00;;;;;;;-142.25;100.00;58004.16;5036478;28;20558;-57
2022/12/14 10:10:47;;;;;;;37.35;18.10;;;;;;;-142.25;100.00;58004.16;5037630;28;20405;-60
2022/12/14 10:13:25;;;;;;;35.33;18.37;;;;;;;-142.25;100.00;58004.16;5036152;28;20051;-58
2022/12/14 10:16:06;;;;;;;35.57;18.43;;;;;;;-142.25;100.00;58004.16;5036312;28;20068;-58
2022/12/14 10:18:50;;;;;;;37.80;18.67;;;;;;;-142.25;100.00;58004.16;5040084;28;20491;-59
2022/12/14 10:21:22;;;;;;;38.60;18.57;;;;;;;-142.25;100.00;58004.16;5036124;28;20092;-59
2022/12/14 10:23:57;;;;;;;38.27;18.73;;;;;;;-142.25;100.00;58004.16;5035253;28;20414;-52
2022/12/14 10:26:34;;;;;;;36.63;20.43;;;;;;;-142.25;100.00;58004.16;5034944;28;20120;-59
2022/12/14 10:29:06;;;;;;;38.83;21.60;;;;;;;-142.25;100.00;58004.16;5037139;28;20046;-60
2022/12/14 10:32:01;;;;;;;35.23;18.70;;;;;;;-142.25;100.00;58004.16;5035414;28;20132;-58
2022/12/14 10:34:29;;;;;;;40.43;19.83;;;;;;;-142.25;100.00;58004.16;5035094;28;20038;-58
2022/12/14 10:37:30;;;;;;;38.73;20.27;;;;;;;-142.25;100.00;58004.16;5031241;28;20033;-58
2022/12/14 10:40:07;;;;;;;45.27;20.20;;;;;;;-142.25;100.00;58004.16;5027792;28;20199;-61
2022/12/14 10:42:50;;;;;;;36.83;19.83;;;;;;;-142.25;100.00;58004.16;5035587;28;20067;-62
2022/12/14 10:45:15;;;;;;;40.27;21.37;;;;;;;-142.25;100.00;58004.16;5033610;28;20057;-61
2022/12/14 10:47:45;;;;;;;38.50;20.83;;;;;;;-142.25;100.00;58004.16;5033638;28;20076;-61
2022/12/14 10:50:23;;;;;;;39.37;20.80;;;;;;;-142.25;100.00;58004.16;5033081;28;20578;-59
2022/12/14 10:52:54;;;;;;;43.70;19.90;;;;;;;-142.25;100.00;58004.16;5032460;28;20049;-65
2022/12/14 10:55:32;;;;;;;36.30;19.30;;;;;;;-142.25;100.00;58004.16;5026424;28;20068;-61
2022/12/14 10:57:58;;;;;;;39.87;21.63;;;;;;;-142.25;100.00;58004.16;5029074;28;20060;-61
2022/12/14 11:00:23;;;;;;;36.60;19.77;;;;;;;-142.25;100.00;58004.16;5014819;28;20056;-61
2022/12/14 11:02:53;;;;;;;43.87;21.93;;;;;;;-142.25;100.00;58004.16;5012752;28;20053;-60
2022/12/14 11:05:34;;;;;;;47.80;21.50;;;;;;;-142.25;100.00;58004.16;5027197;28;20110;-60
2022/12/14 11:08:00;;;;;;;38.93;20.40;;;;;;;-142.25;100.00;58004.16;5024775;28;20052;-62
2022/12/14 11:10:31;;;;;;;35.80;20.43;;;;;;;-142.25;100.00;58004.16;5034400;28;20123;-60
2022/12/14 11:13:05;;;;;;;37.57;20.37;;;;;;;-142.25;100.00;58004.16;5034781;28;20053;-60
2022/12/14 11:15:38;;;;;;;37.27;20.37;;;;;;;-142.25;100.00;58004.16;5020559;28;20053;-59
2022/12/14 11:18:05;;;;;;;36.17;20.10;;;;;;;-142.25;100.00;58004.16;5035355;28;20049;-61
2022/12/14 11:20:32;;;;;;;39.73;20.40;;;;;;;-142.25;100.00;58004.16;5033519;28;20112;-61
2022/12/14 11:23:19;;;;;;;44.03;22.40;;;;;;;-142.25;100.00;58004.16;5034620;28;20493;-60